Ansonville, NC

3:37 AM EDT on September 01, 2014 (GMT -0400)
Anson County | Change Station
CLOSE
Current Station
Airport
Location: Wadesboro,
Elevation: 299 ft
Nearby Weather Stations

Elev 299 ft 35.02 °N, 80.08 °W | Updated 22 minutes ago

Clear
Clear
74 °F
Feels Like 74 °F
N
0
Wind Variable Wind from North

Today
High -- | Low -- °F
--% Chance of Precip.
Yesterday
High -- | Low -- °F
Precip. -- in
6:53 AM 7:47 PM
Waxing Crescent, 38% visible
Pressure 30.08 in
Visibility 10.0 miles
Clouds Clear
Dew Point 71 °F
Humidity 89%
Rainfall 0.00 in
Snow Depth Not available.
UV 0 out of 12
Pollen 8.30 out of 12
Air Quality Not available.
Flu Activity Not available.
METAR KAFP 010715Z AUTO 00000KT 10SM CLR 24/22 A3008 RMK AO2 T02350216

More Conditions Fewer Conditions

Pressure 30.08 in
Visibility 10.0 miles
Clouds Clear
Dew Point 71 °F
Humidity 89%
Rainfall 0.00 in
Snow Depth Not available.
UV 0 out of 12
Pollen 8.30 out of 12
Air Quality Not available.
Flu Activity Not available.
METAR KAFP 010715Z AUTO 00000KT 10SM CLR 24/22 A3008 RMK AO2 T02350216

More Conditions Fewer Conditions

10-Day Weather Forecast

Almanac

Astronomy

Sep. 01, 2014 Rise Set
Actual Time 6:53 AM EDT 7:47 PM EDT
Civil Twilight 6:27 AM EDT 8:12 PM EDT
Nautical Twilight 5:56 AM EDT 8:43 PM EDT
Astronomical Twilight 5:24 AM EDT 9:14 PM EDT
Moon 1:21 PM EDT No Moon Set
Length of Visible Light 13h 45m
Length of Day
12h 54m
Tomorrow will be 2m 6s shorter.
Waxing Crescent, 38% of the Moon is Illuminated
Today
Waxing Crescent
Sep 2
First Quarter
Sep 8
Full
Sep 15
Last Quarter
Sep 24
New

Today's Extremes

State Highs State Lows

Community

WunderPhotos

Upload Photos

1,749,154 photos uploaded!

Nearby

Snow Depth

Station Depth Elevation
No new snow has been reported.

Earthquake Activity

City Distance Mag. Time & Date
No recent earthquake activity has been reported nearby.
Minimum magnitude displayed is 2.5.

Coastal Water Temperatures

Place Temperature
No Stations Reporting

Nearby Weather Stations